ATH weather

Eleftherios Venizelos International Airport
Athens, Attica, Greece

Public forecast

Using degrees Celsius for public forecast. Weather courtesy of forecast.io.

METAR (pilot weather report)

Retrieved 2017/08/16 21:20 UTC (0 seconds ago):

LGAV 162120Z 36007KT CAVOK 26/16 Q1012 NOSIG

TAF (pilot weather forecast)

Retrieved 2017/08/16 18:12 UTC (3 hours ago):

TAF TAF LGAV 161700Z 1618/1718 36015KT 9999 FEW030 TEMPO 1709/1715 02020G30KT